Flight Track Log - Related Links

Times and Time Zones

All times are in EDT time to prevent confusion due to time zone crossing. See the BCY5213 flight status page for this flight to view local times or setup timezone preferences in your user account.

Time Position Orientation Groundspeed Altitude Reporting Facility
EDT Latitude Longitude Course Direction KTS MPH feet Rate Location/Type
Fri 05:48:02 AM 51.5031 0.0898 78° East 174 200 1,000  Level FlightAware UK
Fri 05:48:20 AM 51.5055 0.1075 78° East 174 200 1,600 2,000 Climbing FlightAware UK
Fri 05:48:50 AM 51.5209 0.1310 44° Northeast 104 120 2,600 2,000 Climbing FlightAware UK
Fri 05:49:08 AM 51.5305 0.1448 42° Northeast 174 200 3,200 2,000 Climbing FlightAware UK
Fri 05:49:26 AM 51.5435 0.1536 23° Northeast 174 200 3,800 1,333 Climbing FlightAware UK
Fri 05:49:44 AM 51.5531 0.1707 48° Northeast 174 200 4,000 333 Climbing FlightAware UK
Fri 05:50:02 AM 51.5566 0.1945 76° East 174 200 4,000 -333 Level FlightAware UK
Fri 05:50:20 AM 51.5516 0.2190 108° East 174 200 3,800 167 Descending FlightAware UK
Fri 05:50:38 AM 51.5466 0.2447 107° East 174 200 4,100 1,857 Climbing FlightAware UK
Fri 05:51:02 AM 51.5397 0.2770 109° East 130 150 5,100 2,125 Climbing FlightAware UK
Fri 05:51:26 AM 51.5334 0.3088 108° East 130 150 5,800 1,000 Climbing FlightAware UK
Fri 05:51:50 AM 51.5265 0.3416 109° East 130 150 5,900 111 Climbing FlightAware UK
Fri 05:52:20 AM 51.5159 0.3846 112° Southeast 209 241 5,900  Level FlightAware UK
Fri 05:52:44 AM 51.5075 0.4187 112° Southeast 261 300 5,900  Level FlightAware UK
Fri 05:53:02 AM 51.5015 0.4444 110° East 174 200 5,900  Level FlightAware UK
Fri 05:53:20 AM 51.4976 0.4715 103° East 174 200 5,900  Level FlightAware UK
Fri 05:53:38 AM 51.4929 0.4984 105° East 174 200 5,900  Level FlightAware UK
Fri 05:53:56 AM 51.4882 0.5256 106° East 174 200 5,900  Level FlightAware UK
Fri 05:54:14 AM 51.4834 0.5531 106° East 174 200 5,900 538 Level FlightAware UK
Fri 05:55:14 AM 51.4674 0.6437 106° East 209 241 6,600 769 Climbing FlightAware UK
Fri 05:55:32 AM 51.4628 0.6707 105° East 174 200 6,900 667 Climbing FlightAware UK
Fri 05:55:50 AM 51.4585 0.6978 104° East 174 200 7,000 167 Climbing FlightAware UK
Fri 05:56:08 AM 51.4539 0.7254 105° East 174 200 7,000  Level FlightAware UK
Fri 05:56:26 AM 51.4492 0.7531 105° East 174 200 7,000 1,167 Level FlightAware UK
Fri 05:56:44 AM 51.4444 0.7808 106° East 174 200 7,700 1,855 Climbing FlightAware UK
Fri 05:57:21 AM 51.4362 0.8338 104° East 169 194 8,700 1,200 Climbing FlightAware UK
Fri 05:58:39 AM 51.4209 0.9489 102° East 201 231 10,000 789 Climbing FlightAware UK
Fri 05:59:15 AM 51.4121 1.0063 104° East 261 300 10,200 1,099 Climbing FlightAware UK
Fri 05:59:50 AM 51.4046 1.0623 102° East 179 206 11,300 1,455 Climbing FlightAware UK
Fri 06:00:21 AM 51.3984 1.1084 102° East 202 232 11,800 1,164 Climbing FlightAware UK
Fri 06:00:57 AM 51.3904 1.1637 103° East 174 200 12,600 1,091 Climbing FlightAware UK
Fri 06:01:27 AM 51.3836 1.2103 103° East 209 241 13,000 364 Climbing FlightAware UK
Fri 06:02:03 AM 51.3746 1.2675 104° East 261 300 13,000  Level FlightAware UK
Fri 06:02:39 AM 51.3660 1.3247 103° East 261 300 13,000 182 Level FlightAware UK
Fri 06:03:09 AM 51.3586 1.3728 104° East 209 241 13,200 1,200 Climbing FlightAware UK
Fri 06:03:39 AM 51.3520 1.4192 103° East 209 241 14,200 1,600 Climbing FlightAware UK
Fri 06:04:09 AM 51.3469 1.4641 100° East 209 241 14,800 1,250 Climbing FlightAware UK
Fri 06:04:51 AM 51.3398 1.5264 100° East 223 257 15,700 1,231 Climbing FlightAware UK
Fri 06:05:27 AM 51.3354 1.5792 98° East 174 200 16,400 1,083 Climbing FlightAware UK
Fri 06:06:03 AM 51.3310 1.6327 97° East 174 200 17,000 1,000 Climbing FlightAware UK
Fri 06:06:33 AM 51.3209 1.6741 111° Southeast 209 241 17,500 909 Climbing FlightAware UK
Fri 06:07:09 AM 51.3083 1.7235 112° Southeast 174 200 18,000 867 Climbing FlightAware UK
Fri 06:08:03 AM 51.2905 1.7987 111° Southeast 174 200 18,800 667 Climbing FlightAware UK
Fri 06:08:39 AM 51.2776 1.8511 111° Southeast 174 200 19,000 143 Climbing FlightAware UK
Fri 06:09:27 AM 51.2582 1.9254 113° Southeast 196 226 19,000  Level FlightAware UK
Fri 06:10:03 AM 51.2433 1.9842 112° Southeast 261 300 19,000  Level FlightAware UK
Fri 06:10:39 AM 51.2296 2.0445 110° East 261 300 19,000  Level FlightAware UK
Fri 06:11:45 AM 51.2058 2.1579 109° East 237 273 19,000  Level FlightAware UK
Fri 06:12:15 AM 51.1946 2.2094 109° East 209 241 19,000  Level FlightAware UK
Fri 06:12:45 AM 51.1833 2.2616 109° East 209 241 19,000  Level FlightAware UK
Fri 06:13:15 AM 51.1715 2.3131 110° East 209 241 19,000  Level FlightAware UK
Fri 06:13:51 AM 51.1575 2.3752 110° East 261 300 19,000  Level FlightAware UK
Fri 06:14:51 AM 51.1344 2.4799 109° East 261 300 19,000  Level FlightAware UK
Fri 06:15:27 AM 51.1197 2.5425 111° Southeast 261 300 19,000  Level FlightAware UK
Fri 06:15:57 AM 51.1075 2.5950 110° East 209 241 19,000  Level FlightAware UK
Fri 06:16:51 AM 51.0842 2.6889 112° Southeast 232 267 19,000  Level FlightAware UK
Fri 06:17:51 AM 51.0587 2.7931 111° Southeast 261 300 19,000  Level FlightAware UK
Fri 06:19:15 AM 51.0129 2.9260 119° Southeast 261 300 19,000  Level FlightAware UK
Fri 06:21:09 AM 50.9489 3.1083 119° Southeast 247 284 19,000  Level FlightAware UK
Fri 06:21:45 AM 50.9302 3.1675 117° Southeast 261 300 19,000  Level FlightAware UK
Fri 06:22:16 AM 50.9145 3.2173 117° Southeast 202 232 19,000  Level FlightAware UK
Fri 06:23:04 AM 50.8886 3.2956 118° Southeast 261 300 19,000  Level FlightAware UK
Fri 06:23:40 AM 50.8689 3.3539 118° Southeast 261 300 19,000  Level FlightAware UK
Fri 06:32:22 AM 50.5729 4.1908 123° Southeast 252 290 19,000  Level FlightAware UK
Fri 06:32:52 AM 50.5563 4.2388 118° Southeast 209 241 19,000  Level FlightAware UK
Fri 06:33:22 AM 50.5391 4.2860 120° Southeast 209 241 19,000 -100 Level FlightAware UK
Fri 06:33:52 AM 50.5216 4.3325 121° Southeast 209 241 18,900  Descending FlightAware UK
Fri 06:34:28 AM 50.4931 4.3790 134° Southeast 261 300 19,000 83 Climbing FlightAware UK
Fri 06:35:04 AM 50.4653 4.4258 133° Southeast 261 300 19,000  Level FlightAware UK
Fri 06:37:00 AM 50.3966 4.5767 125° Southeast  Level Estimated
Fri 06:44:00 AM 50.1464 5.1192 126° Southeast  Level Estimated
Fri 06:45:00 AM 50.1104 5.1962 126° Southeast  Level Estimated
Fri 06:46:00 AM 50.0744 5.2731 126° Southeast  Level Estimated
Fri 06:47:00 AM 50.0383 5.3499 126° Southeast  Level Estimated
Fri 06:48:00 AM 50.0022 5.4266 126° Southeast  Level Estimated
Fri 06:49:00 AM 49.9661 5.5032 126° Southeast  Level Estimated
Fri 06:50:00 AM 49.9299 5.5796 126° Southeast  Level Estimated
Fri 06:51:00 AM 49.8936 5.6560 126° Southeast  Level Estimated
Fri 06:52:00 AM 49.8573 5.7322 126° Southeast  Level Estimated
Fri 06:53:00 AM 49.8209 5.8083 126° Southeast  Level Estimated
Fri 06:54:00 AM 49.7845 5.8843 127° Southeast  Level Estimated
Fri 06:55:00 AM 49.7481 5.9602 127° Southeast  Level Estimated
Fri 06:56:00 AM 49.7115 6.0360 127° Southeast  Level Estimated
Fri 06:57:00 AM 49.6750 6.1117 127° Southeast  Level Estimated
Fri 06:58:00 AM 49.6384 6.1872 127° Southeast  Level Estimated
Fri 06:59:00 AM 49.6266 6.2115 127° Southeast  Level Estimated
Fri 07:00:00 AM 49.6266 6.2115 North  Level Estimated
Fri 07:01:00 AM 49.6266 6.2115 North  Level Estimated
Fri 07:02:00 AM 49.6266 6.2115 North  Level Estimated
Fri 07:03:00 AM 49.6266 6.2115 North  Level Estimated
Fri 07:04:00 AM 49.6266 6.2115 North  Level Estimated
Fri 07:05:00 AM 49.6266 6.2115 North  Level Estimated
Fri 07:06:00 AM 49.6266 6.2115 North  Level Estimated
Fri 07:07:00 AM 49.6266 6.2115 North  Level Estimated

Login

Don't have an account? Register now (free) for customized features, flight alerts, and more!